sensor_id;sensor_type;location;lat;lon;timestamp;P1;durP1;ratioP1;P2;durP2;ratioP2
3307;SDS011;1666;48.898;9.182;2022-07-26T00:01:46;6.30;;;1.88;;
3307;SDS011;1666;48.898;9.182;2022-07-26T00:04:16;3.88;;;2.08;;
3307;SDS011;1666;48.898;9.182;2022-07-26T00:06:46;6.70;;;2.10;;
3307;SDS011;1666;48.898;9.182;2022-07-26T00:09:21;3.55;;;2.05;;
3307;SDS011;1666;48.898;9.182;2022-07-26T00:11:53;5.07;;;1.70;;
3307;SDS011;1666;48.898;9.182;2022-07-26T00:14:27;7.38;;;2.05;;
3307;SDS011;1666;48.898;9.182;2022-07-26T00:16:57;6.03;;;2.25;;
3307;SDS011;1666;48.898;9.182;2022-07-26T00:19:27;5.10;;;1.90;;
3307;SDS011;1666;48.898;9.182;2022-07-26T00:21:57;4.60;;;1.73;;
3307;SDS011;1666;48.898;9.182;2022-07-26T00:24:45;3.25;;;1.80;;
3307;SDS011;1666;48.898;9.182;2022-07-26T00:27:15;3.80;;;2.03;;
3307;SDS011;1666;48.898;9.182;2022-07-26T00:29:51;5.75;;;1.92;;
3307;SDS011;1666;48.898;9.182;2022-07-26T00:32:20;4.65;;;1.95;;
3307;SDS011;1666;48.898;9.182;2022-07-26T00:34:50;4.65;;;2.00;;
3307;SDS011;1666;48.898;9.182;2022-07-26T00:37:20;2.63;;;1.52;;
3307;SDS011;1666;48.898;9.182;2022-07-26T00:39:53;4.10;;;1.65;;
3307;SDS011;1666;48.898;9.182;2022-07-26T00:42:23;3.75;;;1.48;;
3307;SDS011;1666;48.898;9.182;2022-07-26T00:44:55;4.82;;;2.20;;
3307;SDS011;1666;48.898;9.182;2022-07-26T00:47:28;15.80;;;2.17;;
3307;SDS011;1666;48.898;9.182;2022-07-26T00:49:58;4.97;;;1.67;;
3307;SDS011;1666;48.898;9.182;2022-07-26T00:52:28;5.47;;;1.77;;
3307;SDS011;1666;48.898;9.182;2022-07-26T00:55:09;2.42;;;1.30;;
3307;SDS011;1666;48.898;9.182;2022-07-26T00:57:42;4.15;;;1.83;;
3307;SDS011;1666;48.898;9.182;2022-07-26T01:00:14;2.67;;;1.42;;
3307;SDS011;1666;48.898;9.182;2022-07-26T01:02:48;2.85;;;1.70;;
3307;SDS011;1666;48.898;9.182;2022-07-26T01:05:18;3.80;;;1.92;;
3307;SDS011;1666;48.898;9.182;2022-07-26T01:07:48;3.03;;;2.17;;
3307;SDS011;1666;48.898;9.182;2022-07-26T01:10:21;5.38;;;2.30;;
3307;SDS011;1666;48.898;9.182;2022-07-26T01:12:51;4.47;;;2.28;;
3307;SDS011;1666;48.898;9.182;2022-07-26T01:15:31;4.07;;;2.50;;
3307;SDS011;1666;48.898;9.182;2022-07-26T01:18:01;7.38;;;2.78;;
3307;SDS011;1666;48.898;9.182;2022-07-26T01:20:31;5.65;;;2.53;;
3307;SDS011;1666;48.898;9.182;2022-07-26T01:23:03;5.78;;;3.00;;
3307;SDS011;1666;48.898;9.182;2022-07-26T01:25:37;3.83;;;3.08;;
3307;SDS011;1666;48.898;9.182;2022-07-26T01:28:11;5.30;;;3.33;;
3307;SDS011;1666;48.898;9.182;2022-07-26T01:30:46;5.93;;;2.88;;
3307;SDS011;1666;48.898;9.182;2022-07-26T01:33:16;3.97;;;2.65;;
3307;SDS011;1666;48.898;9.182;2022-07-26T01:35:50;4.05;;;2.75;;
3307;SDS011;1666;48.898;9.182;2022-07-26T01:38:22;7.85;;;3.33;;
3307;SDS011;1666;48.898;9.182;2022-07-26T01:40:52;7.22;;;3.20;;
3307;SDS011;1666;48.898;9.182;2022-07-26T01:43:26;5.10;;;3.22;;
3307;SDS011;1666;48.898;9.182;2022-07-26T01:46:01;3.80;;;2.75;;
3307;SDS011;1666;48.898;9.182;2022-07-26T01:48:32;2.70;;;2.50;;
3307;SDS011;1666;48.898;9.182;2022-07-26T01:51:06;5.18;;;2.60;;
3307;SDS011;1666;48.898;9.182;2022-07-26T01:53:39;4.65;;;2.75;;
3307;SDS011;1666;48.898;9.182;2022-07-26T01:56:10;4.60;;;2.65;;
3307;SDS011;1666;48.898;9.182;2022-07-26T01:58:41;4.65;;;2.60;;
3307;SDS011;1666;48.898;9.182;2022-07-26T02:01:11;3.33;;;2.42;;
3307;SDS011;1666;48.898;9.182;2022-07-26T02:04:01;4.85;;;2.75;;
3307;SDS011;1666;48.898;9.182;2022-07-26T02:06:32;4.00;;;2.25;;
3307;SDS011;1666;48.898;9.182;2022-07-26T02:09:09;3.78;;;2.70;;
3307;SDS011;1666;48.898;9.182;2022-07-26T02:11:39;2.95;;;2.55;;
3307;SDS011;1666;48.898;9.182;2022-07-26T02:14:09;4.85;;;2.67;;
3307;SDS011;1666;48.898;9.182;2022-07-26T02:16:51;3.92;;;2.67;;
3307;SDS011;1666;48.898;9.182;2022-07-26T02:19:27;5.07;;;2.35;;
3307;SDS011;1666;48.898;9.182;2022-07-26T02:21:58;4.57;;;2.88;;
3307;SDS011;1666;48.898;9.182;2022-07-26T02:24:32;3.60;;;2.28;;
3307;SDS011;1666;48.898;9.182;2022-07-26T02:27:03;4.00;;;2.30;;
3307;SDS011;1666;48.898;9.182;2022-07-26T02:29:35;4.68;;;2.42;;
3307;SDS011;1666;48.898;9.182;2022-07-26T02:32:05;4.63;;;2.10;;
3307;SDS011;1666;48.898;9.182;2022-07-26T02:34:36;10.40;;;2.72;;
3307;SDS011;1666;48.898;9.182;2022-07-26T02:37:06;5.28;;;2.70;;
3307;SDS011;1666;48.898;9.182;2022-07-26T02:39:39;5.38;;;2.42;;
3307;SDS011;1666;48.898;9.182;2022-07-26T02:42:12;4.75;;;2.50;;
3307;SDS011;1666;48.898;9.182;2022-07-26T02:44:44;4.18;;;2.17;;
3307;SDS011;1666;48.898;9.182;2022-07-26T02:47:14;5.40;;;2.28;;
3307;SDS011;1666;48.898;9.182;2022-07-26T02:49:44;2.42;;;2.10;;
3307;SDS011;1666;48.898;9.182;2022-07-26T02:52:14;4.63;;;2.10;;
3307;SDS011;1666;48.898;9.182;2022-07-26T02:54:47;3.00;;;2.50;;
3307;SDS011;1666;48.898;9.182;2022-07-26T02:57:17;2.70;;;2.28;;
3307;SDS011;1666;48.898;9.182;2022-07-26T02:59:47;3.92;;;2.05;;
3307;SDS011;1666;48.898;9.182;2022-07-26T03:02:17;4.95;;;2.17;;
3307;SDS011;1666;48.898;9.182;2022-07-26T03:04:48;4.97;;;2.10;;
3307;SDS011;1666;48.898;9.182;2022-07-26T03:07:18;4.60;;;1.92;;
3307;SDS011;1666;48.898;9.182;2022-07-26T03:09:50;2.20;;;1.90;;
3307;SDS011;1666;48.898;9.182;2022-07-26T03:12:20;3.42;;;2.40;;
3307;SDS011;1666;48.898;9.182;2022-07-26T03:14:50;4.50;;;1.90;;
3307;SDS011;1666;48.898;9.182;2022-07-26T03:17:21;3.63;;;1.90;;
3307;SDS011;1666;48.898;9.182;2022-07-26T03:19:51;6.07;;;1.90;;
3307;SDS011;1666;48.898;9.182;2022-07-26T03:22:21;2.80;;;1.88;;
3307;SDS011;1666;48.898;9.182;2022-07-26T03:24:53;4.32;;;2.20;;
3307;SDS011;1666;48.898;9.182;2022-07-26T03:27:23;4.22;;;2.00;;
3307;SDS011;1666;48.898;9.182;2022-07-26T03:29:53;3.10;;;1.67;;
3307;SDS011;1666;48.898;9.182;2022-07-26T03:32:23;5.20;;;2.33;;
3307;SDS011;1666;48.898;9.182;2022-07-26T03:34:53;5.10;;;2.30;;
3307;SDS011;1666;48.898;9.182;2022-07-26T03:37:23;3.53;;;1.92;;
3307;SDS011;1666;48.898;9.182;2022-07-26T03:40:14;4.97;;;1.95;;
3307;SDS011;1666;48.898;9.182;2022-07-26T03:42:44;4.10;;;2.00;;
3307;SDS011;1666;48.898;9.182;2022-07-26T03:45:15;4.15;;;2.65;;
3307;SDS011;1666;48.898;9.182;2022-07-26T03:47:45;4.78;;;2.13;;
3307;SDS011;1666;48.898;9.182;2022-07-26T03:50:14;5.05;;;2.58;;
3307;SDS011;1666;48.898;9.182;2022-07-26T03:52:44;4.15;;;2.65;;
3307;SDS011;1666;48.898;9.182;2022-07-26T03:55:17;2.05;;;1.40;;
3307;SDS011;1666;48.898;9.182;2022-07-26T03:57:59;4.30;;;1.83;;
3307;SDS011;1666;48.898;9.182;2022-07-26T04:00:29;5.22;;;1.73;;
3307;SDS011;1666;48.898;9.182;2022-07-26T04:02:59;3.20;;;1.77;;
3307;SDS011;1666;48.898;9.182;2022-07-26T04:05:29;3.53;;;1.85;;
3307;SDS011;1666;48.898;9.182;2022-07-26T04:08:01;4.07;;;1.60;;
3307;SDS011;1666;48.898;9.182;2022-07-26T04:10:34;2.10;;;1.90;;
3307;SDS011;1666;48.898;9.182;2022-07-26T04:13:04;2.83;;;1.85;;
3307;SDS011;1666;48.898;9.182;2022-07-26T04:15:34;3.45;;;1.58;;
3307;SDS011;1666;48.898;9.182;2022-07-26T04:18:03;4.75;;;2.15;;
3307;SDS011;1666;48.898;9.182;2022-07-26T04:20:33;2.53;;;1.83;;
3307;SDS011;1666;48.898;9.182;2022-07-26T04:23:03;2.40;;;1.60;;
3307;SDS011;1666;48.898;9.182;2022-07-26T04:25:40;3.13;;;1.92;;
3307;SDS011;1666;48.898;9.182;2022-07-26T04:28:10;3.20;;;1.73;;
3307;SDS011;1666;48.898;9.182;2022-07-26T04:30:40;2.08;;;1.70;;
3307;SDS011;1666;48.898;9.182;2022-07-26T04:33:10;6.60;;;2.00;;
3307;SDS011;1666;48.898;9.182;2022-07-26T04:35:40;3.03;;;1.90;;
3307;SDS011;1666;48.898;9.182;2022-07-26T04:38:10;4.07;;;1.88;;
3307;SDS011;1666;48.898;9.182;2022-07-26T04:40:42;4.25;;;1.98;;
3307;SDS011;1666;48.898;9.182;2022-07-26T04:43:13;7.68;;;2.33;;
3307;SDS011;1666;48.898;9.182;2022-07-26T04:45:43;4.20;;;1.95;;
3307;SDS011;1666;48.898;9.182;2022-07-26T04:48:14;4.32;;;2.13;;
3307;SDS011;1666;48.898;9.182;2022-07-26T04:50:45;3.17;;;1.77;;
3307;SDS011;1666;48.898;9.182;2022-07-26T04:53:15;4.72;;;2.50;;
3307;SDS011;1666;48.898;9.182;2022-07-26T04:55:47;3.83;;;1.73;;
3307;SDS011;1666;48.898;9.182;2022-07-26T04:58:17;3.60;;;1.90;;
3307;SDS011;1666;48.898;9.182;2022-07-26T05:00:47;2.92;;;1.60;;
3307;SDS011;1666;48.898;9.182;2022-07-26T05:03:37;5.10;;;2.33;;
3307;SDS011;1666;48.898;9.182;2022-07-26T05:06:07;4.00;;;1.80;;
3307;SDS011;1666;48.898;9.182;2022-07-26T05:08:37;2.38;;;1.85;;
3307;SDS011;1666;48.898;9.182;2022-07-26T05:11:11;3.38;;;1.80;;
3307;SDS011;1666;48.898;9.182;2022-07-26T05:13:41;2.95;;;1.90;;
3307;SDS011;1666;48.898;9.182;2022-07-26T05:16:10;3.33;;;2.22;;
3307;SDS011;1666;48.898;9.182;2022-07-26T05:18:40;2.65;;;1.80;;
3307;SDS011;1666;48.898;9.182;2022-07-26T05:21:15;5.10;;;2.13;;
3307;SDS011;1666;48.898;9.182;2022-07-26T05:23:46;2.50;;;2.08;;
3307;SDS011;1666;48.898;9.182;2022-07-26T05:26:19;3.33;;;2.22;;
3307;SDS011;1666;48.898;9.182;2022-07-26T05:28:49;2.78;;;2.10;;
3307;SDS011;1666;48.898;9.182;2022-07-26T05:31:19;3.00;;;1.92;;
3307;SDS011;1666;48.898;9.182;2022-07-26T05:33:49;5.45;;;2.20;;
3307;SDS011;1666;48.898;9.182;2022-07-26T05:36:20;2.42;;;2.22;;
3307;SDS011;1666;48.898;9.182;2022-07-26T05:38:50;5.95;;;3.00;;
3307;SDS011;1666;48.898;9.182;2022-07-26T05:41:23;8.32;;;2.22;;
3307;SDS011;1666;48.898;9.182;2022-07-26T05:43:52;2.40;;;1.73;;
3307;SDS011;1666;48.898;9.182;2022-07-26T05:46:22;2.47;;;1.92;;
3307;SDS011;1666;48.898;9.182;2022-07-26T05:48:52;4.10;;;2.10;;
3307;SDS011;1666;48.898;9.182;2022-07-26T05:51:22;6.68;;;2.75;;
3307;SDS011;1666;48.898;9.182;2022-07-26T05:53:53;5.75;;;2.15;;
3307;SDS011;1666;48.898;9.182;2022-07-26T05:56:27;5.18;;;2.33;;
3307;SDS011;1666;48.898;9.182;2022-07-26T05:58:57;6.05;;;2.10;;
3307;SDS011;1666;48.898;9.182;2022-07-26T06:01:27;5.10;;;2.47;;
3307;SDS011;1666;48.898;9.182;2022-07-26T06:03:58;3.92;;;2.30;;
3307;SDS011;1666;48.898;9.182;2022-07-26T06:06:28;4.68;;;2.30;;
3307;SDS011;1666;48.898;9.182;2022-07-26T06:08:58;5.30;;;2.30;;
3307;SDS011;1666;48.898;9.182;2022-07-26T06:11:30;7.22;;;2.33;;
3307;SDS011;1666;48.898;9.182;2022-07-26T06:14:00;4.20;;;2.28;;
3307;SDS011;1666;48.898;9.182;2022-07-26T06:16:30;6.43;;;2.10;;
3307;SDS011;1666;48.898;9.182;2022-07-26T06:19:01;4.63;;;2.22;;
3307;SDS011;1666;48.898;9.182;2022-07-26T06:21:31;5.38;;;2.28;;
3307;SDS011;1666;48.898;9.182;2022-07-26T06:24:04;3.17;;;1.75;;
3307;SDS011;1666;48.898;9.182;2022-07-26T06:26:37;3.08;;;1.80;;
3307;SDS011;1666;48.898;9.182;2022-07-26T06:29:08;3.38;;;1.80;;
3307;SDS011;1666;48.898;9.182;2022-07-26T06:31:37;6.53;;;1.70;;
3307;SDS011;1666;48.898;9.182;2022-07-26T06:34:07;9.75;;;1.95;;
3307;SDS011;1666;48.898;9.182;2022-07-26T06:36:37;2.05;;;1.50;;
3307;SDS011;1666;48.898;9.182;2022-07-26T06:39:07;3.90;;;1.63;;
3307;SDS011;1666;48.898;9.182;2022-07-26T06:41:40;3.97;;;1.50;;
3307;SDS011;1666;48.898;9.182;2022-07-26T06:44:10;2.20;;;1.50;;
3307;SDS011;1666;48.898;9.182;2022-07-26T06:46:40;2.15;;;1.30;;
3307;SDS011;1666;48.898;9.182;2022-07-26T06:49:11;4.18;;;1.58;;
3307;SDS011;1666;48.898;9.182;2022-07-26T06:51:47;6.60;;;1.40;;
3307;SDS011;1666;48.898;9.182;2022-07-26T06:54:17;5.78;;;1.55;;
3307;SDS011;1666;48.898;9.182;2022-07-26T06:56:50;4.55;;;1.52;;
3307;SDS011;1666;48.898;9.182;2022-07-26T06:59:20;2.75;;;1.40;;
3307;SDS011;1666;48.898;9.182;2022-07-26T07:01:51;2.95;;;1.48;;
3307;SDS011;1666;48.898;9.182;2022-07-26T07:04:26;2.83;;;1.20;;
3307;SDS011;1666;48.898;9.182;2022-07-26T07:06:57;4.50;;;1.50;;
3307;SDS011;1666;48.898;9.182;2022-07-26T07:09:31;3.92;;;1.45;;
3307;SDS011;1666;48.898;9.182;2022-07-26T07:12:05;3.88;;;1.40;;
3307;SDS011;1666;48.898;9.182;2022-07-26T07:14:36;2.85;;;1.20;;
3307;SDS011;1666;48.898;9.182;2022-07-26T07:17:07;2.72;;;0.90;;
3307;SDS011;1666;48.898;9.182;2022-07-26T07:19:45;2.03;;;1.10;;
3307;SDS011;1666;48.898;9.182;2022-07-26T07:22:15;4.10;;;1.40;;
3307;SDS011;1666;48.898;9.182;2022-07-26T07:24:45;3.83;;;1.05;;
3307;SDS011;1666;48.898;9.182;2022-07-26T07:27:18;3.55;;;1.00;;
3307;SDS011;1666;48.898;9.182;2022-07-26T07:29:48;2.13;;;1.30;;
3307;SDS011;1666;48.898;9.182;2022-07-26T07:32:18;7.88;;;1.13;;
3307;SDS011;1666;48.898;9.182;2022-07-26T07:34:50;2.92;;;1.00;;
3307;SDS011;1666;48.898;9.182;2022-07-26T07:37:20;3.15;;;1.00;;
3307;SDS011;1666;48.898;9.182;2022-07-26T07:39:50;2.28;;;1.20;;
3307;SDS011;1666;48.898;9.182;2022-07-26T07:42:22;1.90;;;0.80;;
3307;SDS011;1666;48.898;9.182;2022-07-26T07:44:52;5.15;;;1.13;;
3307;SDS011;1666;48.898;9.182;2022-07-26T07:47:22;5.30;;;1.30;;
3307;SDS011;1666;48.898;9.182;2022-07-26T07:49:51;3.33;;;1.20;;
3307;SDS011;1666;48.898;9.182;2022-07-26T07:52:22;4.22;;;1.48;;
3307;SDS011;1666;48.898;9.182;2022-07-26T07:54:52;2.38;;;1.20;;
3307;SDS011;1666;48.898;9.182;2022-07-26T07:57:45;4.85;;;1.02;;
3307;SDS011;1666;48.898;9.182;2022-07-26T08:00:15;3.40;;;1.17;;
3307;SDS011;1666;48.898;9.182;2022-07-26T08:02:52;1.52;;;0.80;;
3307;SDS011;1666;48.898;9.182;2022-07-26T08:05:22;3.28;;;1.02;;
3307;SDS011;1666;48.898;9.182;2022-07-26T08:07:52;1.27;;;1.00;;
3307;SDS011;1666;48.898;9.182;2022-07-26T08:10:22;3.78;;;0.88;;
3307;SDS011;1666;48.898;9.182;2022-07-26T08:12:55;2.05;;;1.20;;
3307;SDS011;1666;48.898;9.182;2022-07-26T08:15:25;4.80;;;1.10;;
3307;SDS011;1666;48.898;9.182;2022-07-26T08:17:56;1.83;;;0.80;;
3307;SDS011;1666;48.898;9.182;2022-07-26T08:20:26;3.38;;;0.90;;
3307;SDS011;1666;48.898;9.182;2022-07-26T08:22:56;4.28;;;1.10;;
3307;SDS011;1666;48.898;9.182;2022-07-26T08:25:26;3.10;;;0.90;;
3307;SDS011;1666;48.898;9.182;2022-07-26T08:27:59;2.30;;;1.00;;
3307;SDS011;1666;48.898;9.182;2022-07-26T08:30:29;2.58;;;0.70;;
3307;SDS011;1666;48.898;9.182;2022-07-26T08:33:00;2.95;;;0.90;;
3307;SDS011;1666;48.898;9.182;2022-07-26T08:35:29;4.20;;;1.15;;
3307;SDS011;1666;48.898;9.182;2022-07-26T08:37:59;1.60;;;0.88;;
3307;SDS011;1666;48.898;9.182;2022-07-26T08:40:29;4.28;;;0.90;;
3307;SDS011;1666;48.898;9.182;2022-07-26T08:43:04;2.22;;;0.90;;
3307;SDS011;1666;48.898;9.182;2022-07-26T08:45:34;4.47;;;1.33;;
3307;SDS011;1666;48.898;9.182;2022-07-26T08:48:04;2.28;;;0.95;;
3307;SDS011;1666;48.898;9.182;2022-07-26T08:50:44;1.75;;;0.90;;
3307;SDS011;1666;48.898;9.182;2022-07-26T08:53:14;3.45;;;0.88;;
3307;SDS011;1666;48.898;9.182;2022-07-26T08:55:44;1.63;;;0.80;;
3307;SDS011;1666;48.898;9.182;2022-07-26T08:58:37;2.15;;;0.93;;
3307;SDS011;1666;48.898;9.182;2022-07-26T09:03:40;3.45;;;0.90;;
3307;SDS011;1666;48.898;9.182;2022-07-26T09:06:14;1.38;;;0.70;;
3307;SDS011;1666;48.898;9.182;2022-07-26T09:08:46;1.45;;;0.88;;
3307;SDS011;1666;48.898;9.182;2022-07-26T09:11:30;5.22;;;1.00;;
3307;SDS011;1666;48.898;9.182;2022-07-26T09:14:06;2.65;;;0.88;;
3307;SDS011;1666;48.898;9.182;2022-07-26T09:16:37;4.13;;;1.50;;
3307;SDS011;1666;48.898;9.182;2022-07-26T09:19:15;2.00;;;0.90;;
3307;SDS011;1666;48.898;9.182;2022-07-26T09:21:48;1.92;;;0.90;;
3307;SDS011;1666;48.898;9.182;2022-07-26T09:24:30;2.47;;;0.77;;
3307;SDS011;1666;48.898;9.182;2022-07-26T09:27:01;2.28;;;0.75;;
3307;SDS011;1666;48.898;9.182;2022-07-26T09:29:45;0.80;;;0.70;;
3307;SDS011;1666;48.898;9.182;2022-07-26T09:32:17;2.83;;;0.82;;
3307;SDS011;1666;48.898;9.182;2022-07-26T09:34:48;1.45;;;0.70;;
3307;SDS011;1666;48.898;9.182;2022-07-26T09:37:33;2.03;;;1.02;;
3307;SDS011;1666;48.898;9.182;2022-07-26T09:40:05;2.47;;;0.93;;
3307;SDS011;1666;48.898;9.182;2022-07-26T09:42:37;2.40;;;0.70;;
3307;SDS011;1666;48.898;9.182;2022-07-26T09:45:23;2.20;;;0.73;;
3307;SDS011;1666;48.898;9.182;2022-07-26T09:47:54;2.33;;;0.77;;
3307;SDS011;1666;48.898;9.182;2022-07-26T09:50:24;3.40;;;0.70;;
3307;SDS011;1666;48.898;9.182;2022-07-26T09:52:56;2.05;;;1.05;;
3307;SDS011;1666;48.898;9.182;2022-07-26T09:55:33;1.75;;;0.82;;
3307;SDS011;1666;48.898;9.182;2022-07-26T09:58:10;4.72;;;1.00;;
3307;SDS011;1666;48.898;9.182;2022-07-26T10:00:43;3.58;;;1.08;;
3307;SDS011;1666;48.898;9.182;2022-07-26T10:03:13;2.28;;;0.80;;
3307;SDS011;1666;48.898;9.182;2022-07-26T10:05:43;2.70;;;0.82;;
3307;SDS011;1666;48.898;9.182;2022-07-26T10:08:13;3.15;;;0.90;;
3307;SDS011;1666;48.898;9.182;2022-07-26T10:10:44;4.20;;;1.00;;
3307;SDS011;1666;48.898;9.182;2022-07-26T10:13:21;5.18;;;1.15;;
3307;SDS011;1666;48.898;9.182;2022-07-26T10:15:53;4.43;;;1.38;;
3307;SDS011;1666;48.898;9.182;2022-07-26T10:21:20;6.18;;;1.00;;
3307;SDS011;1666;48.898;9.182;2022-07-26T10:23:50;3.17;;;1.02;;
3307;SDS011;1666;48.898;9.182;2022-07-26T10:29:24;2.30;;;1.10;;
3307;SDS011;1666;48.898;9.182;2022-07-26T10:34:48;2.15;;;1.02;;
3307;SDS011;1666;48.898;9.182;2022-07-26T10:37:22;2.17;;;0.80;;
3307;SDS011;1666;48.898;9.182;2022-07-26T10:42:50;1.45;;;0.80;;
3307;SDS011;1666;48.898;9.182;2022-07-26T10:45:21;0.88;;;0.70;;
3307;SDS011;1666;48.898;9.182;2022-07-26T10:50:45;1.77;;;0.80;;
3307;SDS011;1666;48.898;9.182;2022-07-26T10:53:17;1.75;;;0.90;;
3307;SDS011;1666;48.898;9.182;2022-07-26T10:55:49;2.65;;;0.70;;
3307;SDS011;1666;48.898;9.182;2022-07-26T10:58:20;2.50;;;0.88;;
3307;SDS011;1666;48.898;9.182;2022-07-26T11:00:57;4.85;;;0.77;;
3307;SDS011;1666;48.898;9.182;2022-07-26T11:03:37;3.05;;;1.08;;
3307;SDS011;1666;48.898;9.182;2022-07-26T11:06:09;2.45;;;0.80;;
3307;SDS011;1666;48.898;9.182;2022-07-26T11:08:40;3.42;;;1.10;;
3307;SDS011;1666;48.898;9.182;2022-07-26T11:11:24;1.00;;;0.55;;
3307;SDS011;1666;48.898;9.182;2022-07-26T11:14:02;1.65;;;0.80;;
3307;SDS011;1666;48.898;9.182;2022-07-26T11:16:35;1.20;;;0.70;;
3307;SDS011;1666;48.898;9.182;2022-07-26T11:19:16;1.13;;;0.77;;
3307;SDS011;1666;48.898;9.182;2022-07-26T11:21:51;1.67;;;0.70;;
3307;SDS011;1666;48.898;9.182;2022-07-26T11:24:22;1.73;;;0.85;;
3307;SDS011;1666;48.898;9.182;2022-07-26T11:26:52;1.25;;;0.80;;
3307;SDS011;1666;48.898;9.182;2022-07-26T11:29:26;1.30;;;0.80;;
3307;SDS011;1666;48.898;9.182;2022-07-26T11:32:08;1.50;;;0.60;;
3307;SDS011;1666;48.898;9.182;2022-07-26T11:34:51;0.63;;;0.60;;
3307;SDS011;1666;48.898;9.182;2022-07-26T11:37:27;1.83;;;0.80;;
3307;SDS011;1666;48.898;9.182;2022-07-26T11:39:56;1.35;;;0.80;;
3307;SDS011;1666;48.898;9.182;2022-07-26T11:42:26;2.55;;;0.73;;
3307;SDS011;1666;48.898;9.182;2022-07-26T11:44:56;2.20;;;0.70;;
3307;SDS011;1666;48.898;9.182;2022-07-26T11:47:26;1.25;;;0.52;;
3307;SDS011;1666;48.898;9.182;2022-07-26T11:49:59;4.97;;;0.70;;
3307;SDS011;1666;48.898;9.182;2022-07-26T11:52:47;3.28;;;0.88;;
3307;SDS011;1666;48.898;9.182;2022-07-26T11:55:23;1.13;;;0.70;;
3307;SDS011;1666;48.898;9.182;2022-07-26T11:57:54;0.68;;;0.60;;
3307;SDS011;1666;48.898;9.182;2022-07-26T12:00:25;1.13;;;0.50;;
3307;SDS011;1666;48.898;9.182;2022-07-26T12:02:58;1.23;;;0.77;;
3307;SDS011;1666;48.898;9.182;2022-07-26T12:05:32;1.42;;;0.60;;
3307;SDS011;1666;48.898;9.182;2022-07-26T12:08:03;1.15;;;0.70;;
3307;SDS011;1666;48.898;9.182;2022-07-26T12:10:33;2.13;;;0.60;;
3307;SDS011;1666;48.898;9.182;2022-07-26T12:13:07;1.13;;;0.47;;
3307;SDS011;1666;48.898;9.182;2022-07-26T12:15:47;1.15;;;0.55;;
3307;SDS011;1666;48.898;9.182;2022-07-26T12:18:22;1.73;;;0.80;;
3307;SDS011;1666;48.898;9.182;2022-07-26T12:21:00;1.10;;;0.60;;
3307;SDS011;1666;48.898;9.182;2022-07-26T12:23:40;3.75;;;0.75;;
3307;SDS011;1666;48.898;9.182;2022-07-26T12:26:18;1.15;;;0.60;;
3307;SDS011;1666;48.898;9.182;2022-07-26T12:28:49;6.18;;;0.90;;
3307;SDS011;1666;48.898;9.182;2022-07-26T12:31:26;2.78;;;0.50;;
3307;SDS011;1666;48.898;9.182;2022-07-26T12:33:57;0.80;;;0.60;;
3307;SDS011;1666;48.898;9.182;2022-07-26T12:36:32;1.63;;;0.80;;
3307;SDS011;1666;48.898;9.182;2022-07-26T12:39:02;3.60;;;0.73;;
3307;SDS011;1666;48.898;9.182;2022-07-26T12:41:33;0.82;;;0.50;;
3307;SDS011;1666;48.898;9.182;2022-07-26T12:44:04;1.90;;;0.90;;
3307;SDS011;1666;48.898;9.182;2022-07-26T12:46:38;1.33;;;0.80;;
3307;SDS011;1666;48.898;9.182;2022-07-26T12:49:10;1.70;;;0.93;;
3307;SDS011;1666;48.898;9.182;2022-07-26T12:51:43;1.73;;;0.82;;
3307;SDS011;1666;48.898;9.182;2022-07-26T12:54:13;3.20;;;0.68;;
3307;SDS011;1666;48.898;9.182;2022-07-26T12:56:44;1.33;;;0.60;;
3307;SDS011;1666;48.898;9.182;2022-07-26T12:59:14;3.47;;;0.73;;
3307;SDS011;1666;48.898;9.182;2022-07-26T13:01:44;1.27;;;0.60;;
3307;SDS011;1666;48.898;9.182;2022-07-26T13:04:14;3.53;;;0.70;;
3307;SDS011;1666;48.898;9.182;2022-07-26T13:06:46;1.80;;;0.63;;
3307;SDS011;1666;48.898;9.182;2022-07-26T13:09:16;3.03;;;0.80;;
3307;SDS011;1666;48.898;9.182;2022-07-26T13:11:46;4.13;;;0.68;;
3307;SDS011;1666;48.898;9.182;2022-07-26T13:14:16;1.25;;;0.68;;
3307;SDS011;1666;48.898;9.182;2022-07-26T13:16:46;0.70;;;0.50;;
3307;SDS011;1666;48.898;9.182;2022-07-26T13:19:18;3.20;;;0.98;;
3307;SDS011;1666;48.898;9.182;2022-07-26T13:21:51;1.55;;;0.70;;
3307;SDS011;1666;48.898;9.182;2022-07-26T13:24:21;3.15;;;0.70;;
3307;SDS011;1666;48.898;9.182;2022-07-26T13:26:54;1.08;;;0.70;;
3307;SDS011;1666;48.898;9.182;2022-07-26T13:29:26;1.25;;;0.75;;
3307;SDS011;1666;48.898;9.182;2022-07-26T13:31:56;1.75;;;0.77;;
3307;SDS011;1666;48.898;9.182;2022-07-26T13:34:30;1.83;;;1.05;;
3307;SDS011;1666;48.898;9.182;2022-07-26T13:37:03;1.38;;;0.90;;
3307;SDS011;1666;48.898;9.182;2022-07-26T13:39:34;1.27;;;0.73;;
3307;SDS011;1666;48.898;9.182;2022-07-26T13:42:06;1.55;;;0.90;;
3307;SDS011;1666;48.898;9.182;2022-07-26T13:44:36;1.38;;;0.90;;
3307;SDS011;1666;48.898;9.182;2022-07-26T13:47:06;2.10;;;0.80;;
3307;SDS011;1666;48.898;9.182;2022-07-26T13:49:39;1.83;;;0.90;;
3307;SDS011;1666;48.898;9.182;2022-07-26T13:52:12;3.38;;;0.75;;
3307;SDS011;1666;48.898;9.182;2022-07-26T13:54:43;2.42;;;0.65;;
3307;SDS011;1666;48.898;9.182;2022-07-26T13:57:13;1.85;;;0.70;;
3307;SDS011;1666;48.898;9.182;2022-07-26T13:59:43;2.40;;;0.70;;
3307;SDS011;1666;48.898;9.182;2022-07-26T14:02:13;2.70;;;0.70;;
3307;SDS011;1666;48.898;9.182;2022-07-26T14:04:43;2.38;;;0.70;;
3307;SDS011;1666;48.898;9.182;2022-07-26T14:07:19;1.33;;;0.77;;
3307;SDS011;1666;48.898;9.182;2022-07-26T14:09:57;4.07;;;0.80;;
3307;SDS011;1666;48.898;9.182;2022-07-26T14:12:26;1.60;;;0.70;;
3307;SDS011;1666;48.898;9.182;2022-07-26T14:14:59;2.75;;;0.70;;
3307;SDS011;1666;48.898;9.182;2022-07-26T14:17:47;1.30;;;0.77;;
3307;SDS011;1666;48.898;9.182;2022-07-26T14:20:18;1.65;;;0.82;;
3307;SDS011;1666;48.898;9.182;2022-07-26T14:22:52;3.75;;;0.68;;
3307;SDS011;1666;48.898;9.182;2022-07-26T14:25:23;2.87;;;0.70;;
3307;SDS011;1666;48.898;9.182;2022-07-26T14:28:03;1.15;;;0.70;;
3307;SDS011;1666;48.898;9.182;2022-07-26T14:30:34;1.20;;;0.77;;
3307;SDS011;1666;48.898;9.182;2022-07-26T14:33:04;3.60;;;0.70;;
3307;SDS011;1666;48.898;9.182;2022-07-26T14:35:35;1.95;;;0.88;;
3307;SDS011;1666;48.898;9.182;2022-07-26T14:38:07;1.42;;;0.80;;
3307;SDS011;1666;48.898;9.182;2022-07-26T14:40:37;2.72;;;0.85;;
3307;SDS011;1666;48.898;9.182;2022-07-26T14:43:08;2.28;;;0.93;;
3307;SDS011;1666;48.898;9.182;2022-07-26T14:45:38;2.40;;;0.85;;
3307;SDS011;1666;48.898;9.182;2022-07-26T14:48:08;2.15;;;0.52;;
3307;SDS011;1666;48.898;9.182;2022-07-26T14:50:57;1.45;;;0.70;;
3307;SDS011;1666;48.898;9.182;2022-07-26T14:53:38;1.52;;;0.70;;
3307;SDS011;1666;48.898;9.182;2022-07-26T14:56:09;1.05;;;0.60;;
3307;SDS011;1666;48.898;9.182;2022-07-26T14:58:39;1.10;;;0.65;;
3307;SDS011;1666;48.898;9.182;2022-07-26T15:01:08;0.85;;;0.70;;
3307;SDS011;1666;48.898;9.182;2022-07-26T15:03:39;0.88;;;0.60;;
3307;SDS011;1666;48.898;9.182;2022-07-26T15:06:09;1.90;;;0.50;;
3307;SDS011;1666;48.898;9.182;2022-07-26T15:08:41;1.15;;;0.60;;
3307;SDS011;1666;48.898;9.182;2022-07-26T15:11:11;1.13;;;0.60;;
3307;SDS011;1666;48.898;9.182;2022-07-26T15:13:44;1.88;;;0.60;;
3307;SDS011;1666;48.898;9.182;2022-07-26T15:16:14;1.70;;;0.77;;
3307;SDS011;1666;48.898;9.182;2022-07-26T15:18:44;2.42;;;1.00;;
3307;SDS011;1666;48.898;9.182;2022-07-26T15:21:15;1.27;;;0.70;;
3307;SDS011;1666;48.898;9.182;2022-07-26T15:23:47;0.80;;;0.55;;
3307;SDS011;1666;48.898;9.182;2022-07-26T15:26:17;1.85;;;0.40;;
3307;SDS011;1666;48.898;9.182;2022-07-26T15:28:47;1.23;;;0.80;;
3307;SDS011;1666;48.898;9.182;2022-07-26T15:31:17;1.25;;;0.70;;
3307;SDS011;1666;48.898;9.182;2022-07-26T15:33:49;3.35;;;0.70;;
3307;SDS011;1666;48.898;9.182;2022-07-26T15:36:19;0.73;;;0.60;;
3307;SDS011;1666;48.898;9.182;2022-07-26T15:38:52;2.58;;;0.70;;
3307;SDS011;1666;48.898;9.182;2022-07-26T15:41:39;1.85;;;0.70;;
3307;SDS011;1666;48.898;9.182;2022-07-26T15:44:09;3.28;;;0.80;;
3307;SDS011;1666;48.898;9.182;2022-07-26T15:46:40;1.23;;;0.52;;
3307;SDS011;1666;48.898;9.182;2022-07-26T15:49:13;2.07;;;0.67;;
3307;SDS011;1666;48.898;9.182;2022-07-26T15:51:45;3.22;;;0.80;;
3307;SDS011;1666;48.898;9.182;2022-07-26T15:54:19;2.17;;;0.60;;
3307;SDS011;1666;48.898;9.182;2022-07-26T15:56:48;3.60;;;0.70;;
3307;SDS011;1666;48.898;9.182;2022-07-26T15:59:18;0.93;;;0.57;;
3307;SDS011;1666;48.898;9.182;2022-07-26T16:01:48;1.67;;;0.80;;
3307;SDS011;1666;48.898;9.182;2022-07-26T16:04:19;0.88;;;0.60;;